NCAR-RAP Real-Time Weather Data

Output produced by METARs form (23 February 2020  01:40 UTC)
found at http://weather.rap.ucar.edu/surface/
 
KJAN 230054Z 08004KT 10SM CLR 07/01 A3032 RMK AO2 SLP269 T00670006
KJAN 222354Z 07004KT 10SM CLR 09/01 A3033 RMK AO2 SLP271 T00940011 10150 20094 56013
KJAN 222254Z 34004KT 10SM FEW120 14/M02 A3034 RMK AO2 SLP274 T01391022
KJAN 222154Z 27005KT 10SM FEW120 14/M03 A3035 RMK AO2 SLP277 T01391028
KJAN 222054Z 00000KT 10SM FEW120 14/M02 A3037 RMK AO2 SLP284 T01391022 56026
KJAN 221954Z 09004KT 10SM SCT120 12/M03 A3039 RMK AO2 SLP291 T01221033
KJAN 221854Z 12003KT 10SM BKN090 12/M04 A3041 RMK AO2 SLP298 T01171039
KJAN 221754Z 00000KT 10SM BKN080 11/M03 A3045 RMK AO2 SLP310 T01061033 10106 21011 58017
KJAN 221654Z 16006KT 10SM BKN090 09/M03 A3049 RMK AO2 SLP325 T00941028 $
KJAN 221554Z VRB04KT 10SM FEW050 08/M04 A3051 RMK AO2 SLP332 T00781039 $
KJAN 221454Z 13004KT 10SM SCT060 06/M03 A3049 RMK AO2 SLP328 T00561033 51010 $
KJAN 221354Z 00000KT 10SM FEW060 01/M02 A3049 RMK AO2 SLP326 T00111017 $
KJAN 221254Z 00000KT 10SM FEW015 FEW060 M01/M03 A3048 RMK AO2 SLP323 T10061033 $
KJAN 221154Z 00000KT 10SM FEW050 M01/M03 A3047 RMK AO2 SLP318 I6000 T10061028 10000 21022 55002 $
KJAN 221054Z AUTO 00000KT 10SM CLR M01/M03 A3046 RMK AO2 SLP318 T10111028 $
KJAN 220954Z AUTO 00000KT 10SM CLR M02/M03 A3047 RMK AO2 SLP318 I1000 T10171033 $
KJAN 220854Z AUTO 00000KT 10SM CLR M02/M04 A3047 RMK AO2 SLP320 T10221039 56011 $
KJAN 220754Z AUTO 00000KT 10SM CLR M02/M04 A3049 RMK AO2 SLP325 T10171039 $
KJAN 220654Z AUTO 00000KT 10SM CLR M02/M04 A3048 RMK AO2 SLP323 T10221039 $
KJAN 220554Z AUTO 00000KT 10SM CLR 00/M03 A3050 RMK AO2 SLP331 T00001033 10056 20000 400890000 58006 $
KJAN 220454Z 00000KT 10SM CLR 01/M03 A3051 RMK AO2 SLP334 T00061033 $
KJAN 220354Z 00000KT 10SM CLR 01/M03 A3052 RMK AO2 SLP337 T00061028 $
KJAN 220254Z 00000KT 10SM CLR 02/M03 A3052 RMK AO2 SLP338 T00221033 50005 $
KJAN 220154Z 34005KT 10SM CLR 02/M03 A3053 RMK AO2 SLP339 T00221028 $
KJAN 220054Z 35006KT 10SM CLR 04/M03 A3052 RMK AO2 SLP336 T00391028 $
KJAN 212354Z 34007KT 10SM CLR 06/M02 A3051 RMK AO2 SLP332 T00561022 10089 20056 55006 $
KJAN 212254Z 01009KT 10SM CLR 08/M04 A3050 RMK AO2 SLP329 T00831039
KJAN 212154Z 35009KT 10SM CLR 09/M04 A3052 RMK AO2 SLP334 T00891044
KJAN 212054Z 35008KT 10SM CLR 08/M04 A3053 RMK AO2 SLP337 T00831044 56027
KJAN 211954Z 02012G16KT 10SM CLR 08/M03 A3054 RMK AO2 SLP343 T00781033
KJAN 211854Z 01008KT 10SM CLR 07/M03 A3058 RMK AO2 SLP354 T00721028 $
KJAN 211754Z 36010G19KT 10SM CLR 06/M03 A3060 RMK AO2 SLP364 T00561033 10061 20000 58005 $
KJAN 211654Z 02010KT 10SM FEW025 04/M03 A3063 RMK AO2 SLP372 T00441033 $
KJAN 211554Z 36012KT 10SM CLR 03/M03 A3063 RMK AO2 SLP375 T00281033 $
KJAN 211454Z 03013KT 10SM FEW020 02/M03 A3062 RMK AO2 SLP371 T00171033 53022 $
KJAN 211354Z 01013KT 10SM FEW018 01/M04 A3060 RMK AO2 SLP364 T00061039 $
KJAN 211254Z 02010KT 10SM FEW019 00/M04 A3057 RMK AO2 SLP354 T00001044
KJAN 211154Z AUTO 01009KT 10SM FEW019 00/M04 A3055 RMK AO2 SLP348 70060 T00001039 10033 20000 53016
KJAN 211054Z AUTO 01016G21KT 10SM CLR 01/M03 A3053 RMK AO2 SLP342 T00111033
KJAN 210954Z AUTO 01013G20KT 10SM CLR 02/M03 A3052 RMK AO2 SLP336 T00171028
KJAN 210854Z AUTO 01015G22KT 10SM CLR 02/M02 A3051 RMK AO2 SLP332 T00221022 51003
KJAN 210754Z AUTO 01014G20KT 10SM CLR 03/M02 A3050 RMK AO2 PK WND 01027/0658 SLP330 T00281017
KJAN 210654Z AUTO 01014G21KT 10SM CLR 03/M01 A3051 RMK AO2 SLP332 T00331011
KJAN 210554Z AUTO 36010KT 10SM CLR 03/00 A3050 RMK AO2 SLP329 T00330000 10061 20033 400890033 51010
KJAN 210454Z 36011KT 10SM SCT027 04/00 A3050 RMK AO2 PK WND 01026/0355 SLP328 T00390000
KJAN 210354Z 01014G22KT 10SM SCT027 05/00 A3049 RMK AO2 PK WND 02030/0310 SLP326 T00500000
KJAN 210306Z 02018G29KT 10SM FEW022 SCT027 OVC049 06/M01 A3047 RMK AO2 PK WND 05029/0301 T00561006
KJAN 210254Z 02020G30KT 10SM BKN022 BKN028 OVC048 06/01 A3047 RMK AO2 PK WND 35030/0248 SLP318 T00560006 51027
KJAN 210154Z 36015G21KT 10SM OVC017 06/02 A3045 RMK AO2 PK WND 03030/0126 SLP312 T00560017